Weather at Fair Weather Field

Public forecast

Using degrees Fahrenheit for public forecast. Weather courtesy of forecast.io.

Closest aviation weather report (METAR) to Fair Weather Field

Closest report is Houston Executive Airport, 10.7 nm (19.9 km) SE.

2024/06/14 15:15 (retrieved 16 minutes ago)

KTME 141515Z AUTO 09003KT 10SM FEW029 FEW055 30/25 A2998 RMK AO2

Closest aviation forecast (TAF) to Fair Weather Field

Closest forecast is Sugar Land Regional Airport, 27.5 nm (50.9 km) SE.

2024/06/14 12:36 (retrieved 3 hours ago)

TAF KSGR 141134Z 1412/1512 00000KT 5SM BR SCT060 FM141500 11006KT P6SM FEW060 FM150000 VRB03KT P6SM FEW250